createdAt,value
2023-05-22T00:03:37.172Z,15.59
2023-05-22T00:08:39.092Z,15.73
2023-05-22T00:13:40.929Z,15.46
2023-05-22T00:18:42.852Z,15.58
2023-05-22T00:23:45.686Z,15.30
2023-05-22T00:28:47.570Z,15.22
2023-05-22T00:33:49.868Z,14.96
2023-05-22T00:38:51.876Z,15.15
2023-05-22T00:43:53.698Z,15.20
2023-05-22T00:48:55.659Z,15.00
2023-05-22T00:53:57.941Z,15.22
2023-05-22T00:58:59.890Z,15.32
2023-05-22T01:04:02.258Z,15.05
2023-05-22T01:09:04.954Z,15.17
2023-05-22T01:14:18.392Z,15.24
2023-05-22T01:19:43.757Z,15.31
2023-05-22T01:24:48.734Z,15.26
2023-05-22T01:29:59.706Z,15.36
2023-05-22T01:35:03.387Z,15.23
2023-05-22T01:40:07.611Z,15.33
2023-05-22T01:45:11.543Z,14.68
2023-05-22T01:50:14.618Z,14.75
2023-05-22T01:55:27.459Z,14.54
2023-05-22T02:00:31.371Z,14.79
2023-05-22T02:05:37.652Z,14.81
2023-05-22T02:10:41.257Z,14.34
2023-05-22T02:15:46.596Z,14.82
2023-05-22T02:20:48.621Z,14.87
2023-05-22T02:25:50.796Z,14.87
2023-05-22T02:30:52.986Z,14.50
2023-05-22T02:35:54.810Z,14.66
2023-05-22T02:40:56.625Z,14.84
2023-05-22T02:45:58.405Z,14.37
2023-05-22T02:51:00.413Z,14.13
2023-05-22T02:56:03.049Z,13.97
2023-05-22T03:01:09.050Z,14.43
2023-05-22T03:06:11.060Z,14.01
2023-05-22T03:11:12.888Z,14.29
2023-05-22T03:16:15.659Z,14.09
2023-05-22T03:21:20.669Z,14.32
2023-05-22T03:26:22.712Z,14.27
2023-05-22T03:31:29.563Z,14.48
2023-05-22T03:36:38.700Z,13.82
2023-05-22T03:41:41.219Z,12.83
2023-05-22T03:46:43.530Z,13.35
2023-05-22T03:51:45.474Z,13.55
2023-05-22T03:56:47.324Z,13.73
2023-05-22T04:01:49.146Z,14.00
2023-05-22T04:06:53.457Z,13.95
2023-05-22T04:11:56.129Z,14.11
2023-05-22T04:16:58.080Z,13.85
2023-05-22T04:21:59.946Z,13.69
2023-05-22T04:27:02.357Z,13.46
2023-05-22T04:32:06.312Z,13.64
2023-05-22T04:37:10.196Z,13.71
2023-05-22T04:42:16.027Z,13.71
2023-05-22T04:47:18.660Z,13.63
2023-05-22T04:52:21.327Z,13.73
2023-05-22T04:57:25.560Z,14.11
2023-05-22T05:02:27.671Z,14.20
2023-05-22T05:07:29.772Z,13.95
2023-05-22T05:12:32.347Z,14.29
2023-05-22T05:17:34.303Z,14.13
2023-05-22T05:22:37.461Z,14.06
2023-05-22T05:27:40.846Z,14.10
2023-05-22T05:32:44.280Z,14.29
2023-05-22T05:37:58.237Z,14.13
2023-05-22T05:43:02.240Z,14.00
2023-05-22T05:48:04.973Z,13.96
2023-05-22T05:53:08.686Z,14.57
2023-05-22T05:58:10.963Z,14.72
2023-05-22T06:03:26.355Z,14.63
2023-05-22T06:08:36.990Z,14.60
2023-05-22T06:13:39.032Z,14.47
2023-05-22T06:18:41.000Z,14.87
2023-05-22T06:23:42.947Z,14.83
2023-05-22T06:28:45.955Z,14.73
2023-05-22T06:33:48.357Z,14.92
2023-05-22T06:38:50.366Z,13.80
2023-05-22T06:44:12.935Z,14.20
2023-05-22T06:49:15.716Z,12.87
2023-05-22T06:54:23.542Z,13.44
2023-05-22T06:59:31.115Z,13.73
2023-05-22T07:04:41.928Z,14.62
2023-05-22T07:09:48.301Z,14.39
2023-05-22T07:14:50.921Z,15.11
2023-05-22T07:19:52.976Z,15.05
2023-05-22T07:24:54.982Z,15.89
2023-05-22T07:29:58.562Z,15.80
2023-05-22T07:35:00.734Z,15.29
2023-05-22T07:40:05.687Z,13.04
2023-05-22T07:45:08.585Z,13.84
2023-05-22T07:50:10.619Z,13.65
2023-05-22T07:55:16.210Z,13.13
2023-05-22T08:00:19.368Z,12.52
2023-05-22T08:05:21.433Z,11.17
2023-05-22T08:10:23.364Z,10.82
2023-05-22T08:15:25.141Z,11.28
2023-05-22T08:20:27.267Z,10.65
2023-05-22T08:25:29.185Z,11.94
2023-05-22T08:30:31.152Z,14.21
2023-05-22T08:35:33.038Z,14.97
2023-05-22T08:40:41.937Z,15.68
2023-05-22T08:45:45.848Z,14.77
2023-05-22T08:50:57.572Z,15.15
2023-05-22T08:55:59.872Z,13.50
2023-05-22T09:01:02.898Z,14.26
2023-05-22T09:06:10.434Z,15.34
2023-05-22T09:11:13.273Z,13.69
2023-05-22T09:16:15.796Z,13.39
2023-05-22T09:21:29.410Z,13.36
2023-05-22T09:26:32.990Z,15.70
2023-05-22T09:31:42.776Z,16.41
2023-05-22T09:36:45.382Z,16.98
2023-05-22T09:41:47.304Z,14.86
2023-05-22T09:46:49.225Z,14.54
2023-05-22T09:51:53.992Z,14.80
2023-05-22T09:56:59.468Z,14.23
2023-05-22T10:02:04.216Z,14.33
2023-05-22T10:07:06.654Z,15.67
2023-05-22T10:12:10.824Z,15.03
2023-05-22T10:17:13.115Z,15.48
2023-05-22T10:22:20.819Z,14.71
2023-05-22T10:27:22.598Z,16.35
2023-05-22T10:32:50.359Z,16.48
2023-05-22T10:38:07.488Z,14.57
2023-05-22T10:43:09.518Z,16.65
2023-05-22T10:48:12.522Z,16.35
2023-05-22T10:53:25.872Z,15.14
2023-05-22T10:58:30.420Z,15.73
2023-05-22T11:03:57.285Z,16.05
2023-05-22T11:08:59.334Z,16.05
2023-05-22T11:14:04.523Z,16.26
2023-05-22T11:19:22.048Z,16.64
2023-05-22T11:24:24.895Z,17.84
2023-05-22T11:29:27.177Z,17.19
2023-05-22T11:34:29.421Z,17.73
2023-05-22T11:39:32.693Z,19.15
2023-05-22T11:44:34.507Z,18.87
2023-05-22T11:49:36.396Z,18.19
2023-05-22T11:54:39.055Z,19.11
2023-05-22T11:59:46.309Z,20.91
2023-05-22T12:04:48.116Z,19.11
2023-05-22T12:09:50.294Z,21.80
2023-05-22T12:14:52.095Z,22.65
2023-05-22T12:19:53.838Z,22.46
2023-05-22T12:24:55.693Z,21.85
2023-05-22T12:29:58.117Z,21.87
2023-05-22T12:35:00.023Z,21.05
2023-05-22T12:40:04.814Z,21.04
2023-05-22T12:45:07.174Z,21.12
2023-05-22T12:50:09.248Z,20.99
2023-05-22T12:55:11.650Z,20.61
2023-05-22T13:00:14.059Z,20.59
2023-05-22T13:05:15.863Z,20.56
2023-05-22T13:10:18.969Z,21.06
2023-05-22T13:15:20.763Z,20.83
2023-05-22T13:20:23.683Z,21.87
2023-05-22T13:25:25.578Z,22.09
2023-05-22T13:30:28.407Z,22.36
2023-05-22T13:35:30.322Z,20.72
2023-05-22T13:40:32.228Z,21.80
2023-05-22T13:45:34.019Z,21.66
2023-05-22T13:50:35.780Z,22.60
2023-05-22T13:55:37.914Z,21.45
2023-05-22T14:00:39.866Z,19.65
2023-05-22T14:05:41.812Z,20.18
2023-05-22T14:10:43.838Z,19.20
2023-05-22T14:15:49.113Z,20.91
2023-05-22T14:20:50.972Z,22.34
2023-05-22T14:25:53.112Z,19.93
2023-05-22T14:30:56.294Z,20.37
2023-05-22T14:35:58.159Z,22.41
2023-05-22T14:41:01.052Z,24.26
2023-05-22T14:46:03.228Z,24.16
2023-05-22T14:51:05.063Z,23.06
2023-05-22T14:56:06.898Z,20.67
2023-05-22T15:01:08.787Z,24.15
2023-05-22T15:06:10.663Z,23.48
2023-05-22T15:11:12.477Z,23.91
2023-05-22T15:16:14.331Z,21.91
2023-05-22T15:21:16.821Z,21.87
2023-05-22T15:26:19.048Z,21.43
2023-05-22T15:31:20.972Z,22.71
2023-05-22T15:36:23.638Z,22.84
2023-05-22T15:41:26.058Z,17.43
2023-05-22T15:46:27.910Z,18.05
2023-05-22T15:51:30.082Z,19.80
2023-05-22T15:56:31.909Z,21.78
2023-05-22T16:01:34.798Z,22.99
2023-05-22T16:06:36.717Z,23.25
2023-05-22T16:11:38.704Z,22.50
2023-05-22T16:16:40.974Z,24.42
2023-05-22T16:21:42.997Z,23.57
2023-05-22T16:26:44.946Z,23.16
2023-05-22T16:31:47.298Z,22.19
2023-05-22T16:36:49.274Z,21.81
2023-05-22T16:41:53.579Z,23.51
2023-05-22T16:46:55.837Z,23.62
2023-05-22T16:51:57.755Z,23.29
2023-05-22T16:56:59.713Z,24.95
2023-05-22T17:02:01.587Z,23.18
2023-05-22T17:07:03.696Z,25.36
2023-05-22T17:12:06.094Z,26.08
2023-05-22T17:17:08.016Z,25.38
2023-05-22T17:22:09.856Z,25.37
2023-05-22T17:27:12.790Z,25.04
2023-05-22T17:32:19.899Z,24.55
2023-05-22T17:37:21.867Z,23.75
2023-05-22T17:42:23.891Z,23.93
2023-05-22T17:47:25.809Z,22.54
2023-05-22T17:52:27.647Z,21.49
2023-05-22T17:57:29.565Z,22.17
2023-05-22T18:02:31.504Z,20.93
2023-05-22T18:07:33.311Z,20.84
2023-05-22T18:12:37.994Z,21.05
2023-05-22T18:17:41.334Z,20.59
2023-05-22T18:22:43.365Z,21.11
2023-05-22T18:27:45.251Z,20.97
2023-05-22T18:32:47.175Z,21.01
2023-05-22T18:37:49.068Z,20.43
2023-05-22T18:42:51.042Z,20.68
2023-05-22T18:47:53.270Z,21.27
2023-05-22T18:52:55.713Z,21.37
2023-05-22T18:57:57.580Z,19.94
2023-05-22T19:02:59.509Z,19.95
2023-05-22T19:08:01.476Z,20.25
2023-05-22T19:13:03.915Z,19.67
2023-05-22T19:18:05.939Z,20.05
2023-05-22T19:23:09.630Z,19.51
2023-05-22T19:28:11.544Z,19.22
2023-05-22T19:33:14.530Z,18.86
2023-05-22T19:38:16.587Z,18.29
2023-05-22T19:43:18.538Z,18.67
2023-05-22T19:48:20.487Z,18.94
2023-05-22T19:53:22.399Z,19.02
2023-05-22T19:58:24.273Z,18.62
2023-05-22T20:03:26.524Z,18.29
2023-05-22T20:08:28.561Z,17.68
2023-05-22T20:13:30.400Z,18.34
2023-05-22T20:18:32.212Z,18.03
2023-05-22T20:23:34.043Z,17.92
2023-05-22T20:28:35.924Z,17.83
2023-05-22T20:33:37.769Z,18.82
2023-05-22T20:38:42.537Z,18.15
2023-05-22T20:43:44.467Z,17.78
2023-05-22T20:48:48.206Z,17.50
2023-05-22T20:53:52.534Z,17.67
2023-05-22T20:58:54.877Z,17.76
2023-05-22T21:03:56.818Z,16.92
2023-05-22T21:09:01.543Z,17.42
2023-05-22T21:14:03.561Z,18.06
2023-05-22T21:19:06.195Z,17.46
2023-05-22T21:24:09.806Z,16.87
2023-05-22T21:29:11.649Z,17.28
2023-05-22T21:34:13.500Z,16.90
2023-05-22T21:39:15.467Z,17.81
2023-05-22T21:44:18.426Z,17.35
2023-05-22T21:49:20.274Z,17.08
2023-05-22T21:54:22.070Z,17.14
2023-05-22T21:59:23.965Z,17.60
2023-05-22T22:04:25.814Z,17.05
2023-05-22T22:09:27.635Z,17.20
2023-05-22T22:14:29.531Z,17.44
2023-05-22T22:19:31.502Z,17.15
2023-05-22T22:24:33.516Z,16.80
2023-05-22T22:29:35.543Z,16.93
2023-05-22T22:34:37.658Z,16.94
2023-05-22T22:39:39.598Z,16.84
2023-05-22T22:44:41.730Z,17.17
2023-05-22T22:49:43.549Z,16.65
2023-05-22T22:54:45.439Z,16.62
2023-05-22T22:59:47.429Z,16.91
2023-05-22T23:04:49.342Z,17.14
2023-05-22T23:09:51.168Z,16.82
2023-05-22T23:14:53.567Z,16.31
2023-05-22T23:19:55.607Z,15.94
2023-05-22T23:24:57.401Z,15.80
2023-05-22T23:29:59.198Z,16.56
2023-05-22T23:35:01.004Z,16.54
2023-05-22T23:40:02.870Z,16.15
2023-05-22T23:45:05.202Z,15.98
2023-05-22T23:50:07.994Z,16.53
2023-05-22T23:55:09.975Z,15.78
